Aérodrome :
LOGIN :

S'inscrire | Disclaimer

   EN    FR    IT 

 










Légende :    VFR   VFR Marginal   IFR   IFR Intensif   IFR Très Intensif
Visi : 
Plafond : 
>= 8 km
>= 3000ft
5 à 8 km
1000 à 3000 ft
1500m à 5 km
500 à 1000 ft
800 à 1500m
200 à 500 ft
< 800m
< 200 ft
Symboles :   Orages  Brouillard  Fortes neiges  Fortes précipitations  Vent > 20 kt
SIGMETs :   Divers  Orages  Givrage  Turbulence  Onde Orograph.  Cendres Volcan.







- Altitude de l'aérodrome : 375 ft
- Code IATA : MST


EHBK - Maastricht Aachen

DERNIER METAR :
  • 180255Z AUTO 26004KT 220V290 4500 BR FEW001 BKN003 OVC004 00/00 Q1016

METARs EXPIRÉS :
  • 180225Z AUTO 26005KT 230V290 4500 BR OVC002 01/00 Q1016
  • 180155Z AUTO 26006KT 220V290 6000 SCT003 OVC004 01/00 Q1016
  • 180125Z AUTO 26005KT 220V300 4000 BR BKN002 OVC004 01/01 Q1015
  • 180055Z AUTO 25006KT 220V320 3900 BR OVC002 01/01 Q1015
  • 180025Z AUTO 26005KT 220V300 6000 OVC002 01/00 Q1015

TAF TAF EHBK
Valide du 18 à 00h jusqu'au 19 à 06h UTC


172308Z 1800/1906 27009KT 7000 SCT004 BKN007
BECMG 1800/1803 3000 BR FEW030
PROB40
TEMPO 1800/1802 1400 SN BKN003
PROB40 1805/1810 0500 FZFG BKN001
BECMG 1810/1813 CAVOK
Pas de NOTAMs connus pour ce terrain.



MET'MAP, la Météo Aéronautique d'un coup d'oeil ! - Copyright ORBIFLY Décembre 2007 - Disclaimer

ORBIFLY MET'MAP TEAM :

Programmation & Développement : Alexandra Zaïnal
Conception & Développement : Baudouin d'Aumeries
Co-Programmation & Développement : Marc-Olivier Méhu
Soutien technique & logistique : Manuel Goepfert

Contact : metmap@orbifly.com




SOURCES & CREDITS :

   NOAA